Terminal Aerodrome Forecast
Issued by NWS Cleveland, OH

Home | Current Version | Previous Version | Graphics & Text | Print | Product List | Glossary On
Versions: 1 2 3 4 5 6 7 8 9 10 11 12 13 14 15 16 17
000
FTUS41 KCLE 291100
TAFERI
TAF
KERI 291120Z 2912/3012 22008KT P6SM FEW120 OVC200
     FM291700 26014G24KT P6SM BKN035
     FM292300 29015G25KT 5SM -SHRA SCT015 OVC025
     FM300400 30010KT P6SM VCSH OVC025=

USA.gov is the U.S. government's official web portal to all federal, state and local government web resources and services.